sensor_id;sensor_type;location;lat;lon;timestamp;P1;durP1;ratioP1;P2;durP2;ratioP2
51515;SDS011;37603;55.614;37.326;2023-08-30T00:01:01;23.2;;;15.9;;
51515;SDS011;37603;55.614;37.326;2023-08-30T00:07:01;21.6;;;15.8;;
51515;SDS011;37603;55.614;37.326;2023-08-30T00:13:00;19.2;;;15.2;;
51515;SDS011;37603;55.614;37.326;2023-08-30T00:19:00;19.7;;;14.9;;
51515;SDS011;37603;55.614;37.326;2023-08-30T00:24:59;17.7;;;14.9;;
51515;SDS011;37603;55.614;37.326;2023-08-30T00:30:59;20.1;;;14.9;;
51515;SDS011;37603;55.614;37.326;2023-08-30T00:36:59;19.4;;;14.6;;
51515;SDS011;37603;55.614;37.326;2023-08-30T00:42:57;18.1;;;14.8;;
51515;SDS011;37603;55.614;37.326;2023-08-30T00:48:57;18.2;;;14.5;;
51515;SDS011;37603;55.614;37.326;2023-08-30T00:54:56;19.5;;;14.7;;
51515;SDS011;37603;55.614;37.326;2023-08-30T01:00:56;20.8;;;15.5;;
51515;SDS011;37603;55.614;37.326;2023-08-30T01:06:55;18.9;;;14.8;;
51515;SDS011;37603;55.614;37.326;2023-08-30T01:12:56;19.9;;;15.4;;
51515;SDS011;37603;55.614;37.326;2023-08-30T01:18:55;19.8;;;15.0;;
51515;SDS011;37603;55.614;37.326;2023-08-30T01:24:56;19.7;;;14.1;;
51515;SDS011;37603;55.614;37.326;2023-08-30T01:30:53;21.8;;;15.0;;
51515;SDS011;37603;55.614;37.326;2023-08-30T01:36:52;22.4;;;17.2;;
51515;SDS011;37603;55.614;37.326;2023-08-30T01:42:52;19.3;;;15.2;;
51515;SDS011;37603;55.614;37.326;2023-08-30T01:48:52;19.4;;;16.1;;
51515;SDS011;37603;55.614;37.326;2023-08-30T01:54:51;18.5;;;15.3;;
51515;SDS011;37603;55.614;37.326;2023-08-30T02:00:50;19.5;;;15.9;;
51515;SDS011;37603;55.614;37.326;2023-08-30T02:06:51;16.9;;;15.0;;
51515;SDS011;37603;55.614;37.326;2023-08-30T02:12:49;17.3;;;14.8;;
51515;SDS011;37603;55.614;37.326;2023-08-30T02:18:48;17.2;;;14.9;;
51515;SDS011;37603;55.614;37.326;2023-08-30T02:24:47;15.0;;;13.1;;
51515;SDS011;37603;55.614;37.326;2023-08-30T02:30:47;16.7;;;14.5;;
51515;SDS011;37603;55.614;37.326;2023-08-30T02:36:46;16.0;;;14.3;;
51515;SDS011;37603;55.614;37.326;2023-08-30T02:42:46;15.7;;;14.0;;
51515;SDS011;37603;55.614;37.326;2023-08-30T02:48:45;15.9;;;13.3;;
51515;SDS011;37603;55.614;37.326;2023-08-30T02:54:44;13.4;;;12.0;;
51515;SDS011;37603;55.614;37.326;2023-08-30T03:00:44;13.3;;;11.9;;
51515;SDS011;37603;55.614;37.326;2023-08-30T03:06:43;13.8;;;11.8;;
51515;SDS011;37603;55.614;37.326;2023-08-30T03:12:43;14.0;;;11.4;;
51515;SDS011;37603;55.614;37.326;2023-08-30T03:18:42;13.7;;;11.3;;
51515;SDS011;37603;55.614;37.326;2023-08-30T03:24:41;14.2;;;12.4;;
51515;SDS011;37603;55.614;37.326;2023-08-30T03:30:41;13.6;;;11.7;;
51515;SDS011;37603;55.614;37.326;2023-08-30T03:36:40;11.9;;;10.5;;
51515;SDS011;37603;55.614;37.326;2023-08-30T03:42:40;10.9;;;9.8;;
51515;SDS011;37603;55.614;37.326;2023-08-30T03:48:39;12.6;;;10.9;;
51515;SDS011;37603;55.614;37.326;2023-08-30T03:54:44;10.9;;;9.8;;
51515;SDS011;37603;55.614;37.326;2023-08-30T04:00:38;11.4;;;10.3;;
51515;SDS011;37603;55.614;37.326;2023-08-30T04:06:37;11.5;;;10.0;;
51515;SDS011;37603;55.614;37.326;2023-08-30T04:12:37;12.0;;;10.7;;
51515;SDS011;37603;55.614;37.326;2023-08-30T04:18:36;12.2;;;10.6;;
51515;SDS011;37603;55.614;37.326;2023-08-30T04:24:36;10.3;;;9.3;;
51515;SDS011;37603;55.614;37.326;2023-08-30T04:30:35;10.2;;;9.1;;
51515;SDS011;37603;55.614;37.326;2023-08-30T04:36:35;13.2;;;10.1;;
51515;SDS011;37603;55.614;37.326;2023-08-30T04:42:34;12.0;;;9.8;;
51515;SDS011;37603;55.614;37.326;2023-08-30T04:48:34;12.8;;;11.5;;
51515;SDS011;37603;55.614;37.326;2023-08-30T04:54:33;13.3;;;11.3;;
51515;SDS011;37603;55.614;37.326;2023-08-30T05:00:33;13.5;;;12.1;;
51515;SDS011;37603;55.614;37.326;2023-08-30T05:06:32;13.2;;;10.8;;
51515;SDS011;37603;55.614;37.326;2023-08-30T05:12:32;12.7;;;11.4;;
51515;SDS011;37603;55.614;37.326;2023-08-30T05:18:33;15.4;;;10.6;;
51515;SDS011;37603;55.614;37.326;2023-08-30T05:24:30;12.5;;;10.6;;
51515;SDS011;37603;55.614;37.326;2023-08-30T05:30:30;11.2;;;10.0;;
51515;SDS011;37603;55.614;37.326;2023-08-30T05:36:29;10.9;;;9.4;;
51515;SDS011;37603;55.614;37.326;2023-08-30T05:42:29;10.2;;;8.6;;
51515;SDS011;37603;55.614;37.326;2023-08-30T05:48:28;10.6;;;9.1;;
51515;SDS011;37603;55.614;37.326;2023-08-30T05:54:28;11.8;;;8.2;;
51515;SDS011;37603;55.614;37.326;2023-08-30T06:00:28;10.9;;;9.4;;
51515;SDS011;37603;55.614;37.326;2023-08-30T06:06:27;10.3;;;9.0;;
51515;SDS011;37603;55.614;37.326;2023-08-30T06:12:27;11.1;;;9.1;;
51515;SDS011;37603;55.614;37.326;2023-08-30T06:18:29;11.4;;;9.6;;
51515;SDS011;37603;55.614;37.326;2023-08-30T06:24:26;9.3;;;8.3;;
51515;SDS011;37603;55.614;37.326;2023-08-30T06:30:25;10.2;;;8.1;;
51515;SDS011;37603;55.614;37.326;2023-08-30T06:36:25;7.9;;;7.1;;
51515;SDS011;37603;55.614;37.326;2023-08-30T06:42:25;8.4;;;6.9;;
51515;SDS011;37603;55.614;37.326;2023-08-30T06:48:24;7.8;;;6.5;;
51515;SDS011;37603;55.614;37.326;2023-08-30T06:54:24;7.2;;;5.2;;
51515;SDS011;37603;55.614;37.326;2023-08-30T07:00:23;5.9;;;5.2;;
51515;SDS011;37603;55.614;37.326;2023-08-30T07:06:23;6.4;;;4.5;;
51515;SDS011;37603;55.614;37.326;2023-08-30T07:12:23;6.9;;;5.2;;
51515;SDS011;37603;55.614;37.326;2023-08-30T07:18:22;6.4;;;5.0;;
51515;SDS011;37603;55.614;37.326;2023-08-30T07:24:22;5.4;;;4.2;;
51515;SDS011;37603;55.614;37.326;2023-08-30T07:30:22;5.6;;;5.1;;
51515;SDS011;37603;55.614;37.326;2023-08-30T07:36:23;11.3;;;5.8;;
51515;SDS011;37603;55.614;37.326;2023-08-30T07:42:21;7.9;;;5.8;;
51515;SDS011;37603;55.614;37.326;2023-08-30T07:48:21;7.6;;;5.6;;
51515;SDS011;37603;55.614;37.326;2023-08-30T07:54:21;8.1;;;5.6;;
51515;SDS011;37603;55.614;37.326;2023-08-30T08:00:21;7.1;;;5.5;;
51515;SDS011;37603;55.614;37.326;2023-08-30T08:06:20;8.6;;;4.8;;
51515;SDS011;37603;55.614;37.326;2023-08-30T08:12:20;10.9;;;4.8;;
51515;SDS011;37603;55.614;37.326;2023-08-30T08:18:20;6.6;;;4.7;;
51515;SDS011;37603;55.614;37.326;2023-08-30T08:24:20;9.9;;;4.9;;
51515;SDS011;37603;55.614;37.326;2023-08-30T08:30:19;6.9;;;4.8;;
51515;SDS011;37603;55.614;37.326;2023-08-30T08:42:19;5.6;;;4.3;;
51515;SDS011;37603;55.614;37.326;2023-08-30T08:48:19;6.5;;;4.4;;
51515;SDS011;37603;55.614;37.326;2023-08-30T08:54:19;6.7;;;4.8;;
51515;SDS011;37603;55.614;37.326;2023-08-30T09:00:18;7.2;;;4.7;;
51515;SDS011;37603;55.614;37.326;2023-08-30T09:06:18;6.5;;;4.1;;
51515;SDS011;37603;55.614;37.326;2023-08-30T09:12:18;6.2;;;4.5;;
51515;SDS011;37603;55.614;37.326;2023-08-30T09:18:18;6.1;;;4.0;;
51515;SDS011;37603;55.614;37.326;2023-08-30T09:24:18;7.0;;;4.3;;
51515;SDS011;37603;55.614;37.326;2023-08-30T09:30:21;6.8;;;4.2;;
51515;SDS011;37603;55.614;37.326;2023-08-30T09:36:17;6.6;;;4.0;;
51515;SDS011;37603;55.614;37.326;2023-08-30T09:42:17;6.5;;;3.8;;
51515;SDS011;37603;55.614;37.326;2023-08-30T09:48:17;7.8;;;4.7;;
51515;SDS011;37603;55.614;37.326;2023-08-30T09:54:18;7.0;;;4.3;;
51515;SDS011;37603;55.614;37.326;2023-08-30T10:00:16;8.4;;;4.1;;
51515;SDS011;37603;55.614;37.326;2023-08-30T10:06:16;7.0;;;4.0;;
51515;SDS011;37603;55.614;37.326;2023-08-30T10:12:15;6.2;;;4.7;;
51515;SDS011;37603;55.614;37.326;2023-08-30T10:18:15;9.0;;;4.9;;
51515;SDS011;37603;55.614;37.326;2023-08-30T10:24:16;7.4;;;4.7;;
51515;SDS011;37603;55.614;37.326;2023-08-30T10:30:15;10.1;;;4.7;;
51515;SDS011;37603;55.614;37.326;2023-08-30T10:36:20;9.5;;;4.9;;
51515;SDS011;37603;55.614;37.326;2023-08-30T10:42:14;9.1;;;4.6;;
51515;SDS011;37603;55.614;37.326;2023-08-30T10:48:15;8.9;;;5.6;;
51515;SDS011;37603;55.614;37.326;2023-08-30T10:54:14;6.9;;;4.7;;
51515;SDS011;37603;55.614;37.326;2023-08-30T11:00:18;10.0;;;5.6;;
51515;SDS011;37603;55.614;37.326;2023-08-30T11:06:13;7.2;;;4.7;;
51515;SDS011;37603;55.614;37.326;2023-08-30T11:12:13;6.1;;;4.2;;
51515;SDS011;37603;55.614;37.326;2023-08-30T11:18:19;6.6;;;4.6;;
51515;SDS011;37603;55.614;37.326;2023-08-30T11:24:12;6.8;;;4.0;;
51515;SDS011;37603;55.614;37.326;2023-08-30T11:30:12;9.0;;;5.0;;
51515;SDS011;37603;55.614;37.326;2023-08-30T11:36:11;8.8;;;5.1;;
51515;SDS011;37603;55.614;37.326;2023-08-30T11:42:19;7.7;;;4.3;;
51515;SDS011;37603;55.614;37.326;2023-08-30T11:48:11;7.4;;;4.6;;
51515;SDS011;37603;55.614;37.326;2023-08-30T11:54:10;8.8;;;4.9;;
51515;SDS011;37603;55.614;37.326;2023-08-30T12:00:11;7.7;;;4.3;;
51515;SDS011;37603;55.614;37.326;2023-08-30T12:06:10;9.8;;;6.2;;
51515;SDS011;37603;55.614;37.326;2023-08-30T12:12:11;6.4;;;4.1;;
51515;SDS011;37603;55.614;37.326;2023-08-30T12:18:09;7.0;;;3.6;;
51515;SDS011;37603;55.614;37.326;2023-08-30T12:24:09;7.6;;;3.5;;
51515;SDS011;37603;55.614;37.326;2023-08-30T12:30:09;8.3;;;4.1;;
51515;SDS011;37603;55.614;37.326;2023-08-30T12:36:08;8.8;;;3.5;;
51515;SDS011;37603;55.614;37.326;2023-08-30T12:42:08;6.1;;;3.8;;
51515;SDS011;37603;55.614;37.326;2023-08-30T12:48:08;5.7;;;3.2;;
51515;SDS011;37603;55.614;37.326;2023-08-30T12:54:07;8.7;;;3.8;;
51515;SDS011;37603;55.614;37.326;2023-08-30T13:00:09;9.5;;;3.2;;
51515;SDS011;37603;55.614;37.326;2023-08-30T13:06:08;5.6;;;3.3;;
51515;SDS011;37603;55.614;37.326;2023-08-30T13:12:07;6.9;;;3.6;;
51515;SDS011;37603;55.614;37.326;2023-08-30T13:24:06;5.8;;;3.2;;
51515;SDS011;37603;55.614;37.326;2023-08-30T13:30:06;8.7;;;3.2;;
51515;SDS011;37603;55.614;37.326;2023-08-30T13:36:06;6.0;;;3.0;;
51515;SDS011;37603;55.614;37.326;2023-08-30T13:42:05;7.2;;;3.3;;
51515;SDS011;37603;55.614;37.326;2023-08-30T13:48:05;5.9;;;3.4;;
51515;SDS011;37603;55.614;37.326;2023-08-30T13:54:05;8.4;;;3.6;;
51515;SDS011;37603;55.614;37.326;2023-08-30T14:00:10;9.4;;;4.5;;
51515;SDS011;37603;55.614;37.326;2023-08-30T14:06:04;8.3;;;4.1;;
51515;SDS011;37603;55.614;37.326;2023-08-30T14:12:04;8.8;;;3.9;;
51515;SDS011;37603;55.614;37.326;2023-08-30T14:18:04;8.9;;;5.1;;
51515;SDS011;37603;55.614;37.326;2023-08-30T14:24:04;9.9;;;4.5;;
51515;SDS011;37603;55.614;37.326;2023-08-30T14:30:04;9.7;;;4.4;;
51515;SDS011;37603;55.614;37.326;2023-08-30T14:36:03;11.6;;;4.2;;
51515;SDS011;37603;55.614;37.326;2023-08-30T14:42:03;7.3;;;4.7;;
51515;SDS011;37603;55.614;37.326;2023-08-30T14:48:03;8.5;;;4.4;;
51515;SDS011;37603;55.614;37.326;2023-08-30T14:54:02;10.4;;;4.6;;
51515;SDS011;37603;55.614;37.326;2023-08-30T15:00:02;8.2;;;4.7;;
51515;SDS011;37603;55.614;37.326;2023-08-30T15:06:01;10.3;;;4.5;;
51515;SDS011;37603;55.614;37.326;2023-08-30T15:12:01;9.6;;;3.8;;
51515;SDS011;37603;55.614;37.326;2023-08-30T15:18:01;6.5;;;3.9;;
51515;SDS011;37603;55.614;37.326;2023-08-30T15:24:05;9.5;;;3.9;;
51515;SDS011;37603;55.614;37.326;2023-08-30T15:30:00;9.3;;;3.7;;
51515;SDS011;37603;55.614;37.326;2023-08-30T15:36:00;8.1;;;3.7;;
51515;SDS011;37603;55.614;37.326;2023-08-30T15:41:59;10.7;;;3.8;;
51515;SDS011;37603;55.614;37.326;2023-08-30T15:47:59;9.3;;;3.9;;
51515;SDS011;37603;55.614;37.326;2023-08-30T15:53:59;10.8;;;4.3;;
51515;SDS011;37603;55.614;37.326;2023-08-30T15:59:58;12.8;;;4.9;;
51515;SDS011;37603;55.614;37.326;2023-08-30T16:05:59;7.6;;;5.0;;
51515;SDS011;37603;55.614;37.326;2023-08-30T16:11:57;14.4;;;5.4;;
51515;SDS011;37603;55.614;37.326;2023-08-30T16:18:01;11.9;;;5.2;;
51515;SDS011;37603;55.614;37.326;2023-08-30T16:23:57;11.0;;;5.4;;
51515;SDS011;37603;55.614;37.326;2023-08-30T16:29:56;9.4;;;5.5;;
51515;SDS011;37603;55.614;37.326;2023-08-30T16:35:56;11.0;;;5.7;;
51515;SDS011;37603;55.614;37.326;2023-08-30T16:41:55;10.0;;;5.2;;
51515;SDS011;37603;55.614;37.326;2023-08-30T16:47:55;12.1;;;5.9;;
51515;SDS011;37603;55.614;37.326;2023-08-30T16:59:54;13.2;;;6.9;;
51515;SDS011;37603;55.614;37.326;2023-08-30T17:05:53;9.1;;;6.4;;
51515;SDS011;37603;55.614;37.326;2023-08-30T17:11:53;13.9;;;6.9;;
51515;SDS011;37603;55.614;37.326;2023-08-30T17:23:52;13.3;;;7.4;;
51515;SDS011;37603;55.614;37.326;2023-08-30T17:29:52;14.9;;;9.7;;
51515;SDS011;37603;55.614;37.326;2023-08-30T17:35:52;18.8;;;11.5;;
51515;SDS011;37603;55.614;37.326;2023-08-30T17:41:51;25.2;;;14.4;;
51515;SDS011;37603;55.614;37.326;2023-08-30T17:47:50;38.7;;;23.3;;
51515;SDS011;37603;55.614;37.326;2023-08-30T17:53:49;39.5;;;25.1;;
51515;SDS011;37603;55.614;37.326;2023-08-30T17:59:49;38.1;;;23.2;;
51515;SDS011;37603;55.614;37.326;2023-08-30T18:05:48;43.2;;;27.4;;
51515;SDS011;37603;55.614;37.326;2023-08-30T18:11:48;32.5;;;19.2;;
51515;SDS011;37603;55.614;37.326;2023-08-30T18:17:48;28.1;;;16.4;;
51515;SDS011;37603;55.614;37.326;2023-08-30T18:29:46;24.7;;;14.2;;
51515;SDS011;37603;55.614;37.326;2023-08-30T18:35:46;14.2;;;10.0;;
51515;SDS011;37603;55.614;37.326;2023-08-30T18:41:45;17.3;;;10.5;;
51515;SDS011;37603;55.614;37.326;2023-08-30T18:47:45;15.7;;;9.5;;
51515;SDS011;37603;55.614;37.326;2023-08-30T18:53:44;12.6;;;8.3;;
51515;SDS011;37603;55.614;37.326;2023-08-30T18:59:44;12.4;;;7.8;;
51515;SDS011;37603;55.614;37.326;2023-08-30T19:05:43;12.8;;;7.8;;
51515;SDS011;37603;55.614;37.326;2023-08-30T19:11:42;14.1;;;7.6;;
51515;SDS011;37603;55.614;37.326;2023-08-30T19:17:42;13.9;;;7.3;;
51515;SDS011;37603;55.614;37.326;2023-08-30T19:23:41;14.8;;;8.0;;
51515;SDS011;37603;55.614;37.326;2023-08-30T19:29:41;14.0;;;8.5;;
51515;SDS011;37603;55.614;37.326;2023-08-30T19:35:40;12.2;;;7.4;;
51515;SDS011;37603;55.614;37.326;2023-08-30T19:41:40;13.3;;;6.4;;
51515;SDS011;37603;55.614;37.326;2023-08-30T19:47:39;11.4;;;7.6;;
51515;SDS011;37603;55.614;37.326;2023-08-30T19:53:39;12.2;;;7.3;;
51515;SDS011;37603;55.614;37.326;2023-08-30T19:59:38;12.4;;;6.9;;
51515;SDS011;37603;55.614;37.326;2023-08-30T20:05:42;14.0;;;7.9;;
51515;SDS011;37603;55.614;37.326;2023-08-30T20:11:37;13.7;;;7.9;;
51515;SDS011;37603;55.614;37.326;2023-08-30T20:17:36;12.4;;;7.9;;
51515;SDS011;37603;55.614;37.326;2023-08-30T20:23:36;13.6;;;7.8;;
51515;SDS011;37603;55.614;37.326;2023-08-30T20:29:40;12.9;;;8.4;;
51515;SDS011;37603;55.614;37.326;2023-08-30T20:35:35;16.0;;;8.9;;
51515;SDS011;37603;55.614;37.326;2023-08-30T20:41:34;13.1;;;8.7;;
51515;SDS011;37603;55.614;37.326;2023-08-30T20:47:34;11.5;;;8.0;;
51515;SDS011;37603;55.614;37.326;2023-08-30T20:53:34;12.3;;;7.8;;
51515;SDS011;37603;55.614;37.326;2023-08-30T20:59:33;10.6;;;7.3;;
51515;SDS011;37603;55.614;37.326;2023-08-30T21:05:32;11.2;;;7.3;;
51515;SDS011;37603;55.614;37.326;2023-08-30T21:11:31;10.7;;;6.9;;
51515;SDS011;37603;55.614;37.326;2023-08-30T21:17:31;11.6;;;6.7;;
51515;SDS011;37603;55.614;37.326;2023-08-30T21:23:30;9.2;;;8.1;;
51515;SDS011;37603;55.614;37.326;2023-08-30T21:29:30;15.0;;;7.4;;
51515;SDS011;37603;55.614;37.326;2023-08-30T21:35:29;13.2;;;7.0;;
51515;SDS011;37603;55.614;37.326;2023-08-30T21:41:29;8.9;;;6.3;;
51515;SDS011;37603;55.614;37.326;2023-08-30T21:47:28;9.9;;;6.7;;
51515;SDS011;37603;55.614;37.326;2023-08-30T21:53:27;10.7;;;6.9;;
51515;SDS011;37603;55.614;37.326;2023-08-30T21:59:27;9.6;;;5.9;;
51515;SDS011;37603;55.614;37.326;2023-08-30T22:05:26;9.7;;;7.2;;
51515;SDS011;37603;55.614;37.326;2023-08-30T22:11:26;11.6;;;7.8;;
51515;SDS011;37603;55.614;37.326;2023-08-30T22:17:25;10.7;;;7.6;;
51515;SDS011;37603;55.614;37.326;2023-08-30T22:23:25;12.3;;;8.0;;
51515;SDS011;37603;55.614;37.326;2023-08-30T22:29:24;9.6;;;6.6;;
51515;SDS011;37603;55.614;37.326;2023-08-30T22:35:24;10.2;;;7.2;;
51515;SDS011;37603;55.614;37.326;2023-08-30T22:41:23;9.6;;;6.8;;
51515;SDS011;37603;55.614;37.326;2023-08-30T22:47:22;8.4;;;6.5;;
51515;SDS011;37603;55.614;37.326;2023-08-30T22:53:22;9.2;;;6.2;;
51515;SDS011;37603;55.614;37.326;2023-08-30T22:59:21;9.6;;;6.6;;
51515;SDS011;37603;55.614;37.326;2023-08-30T23:05:21;9.1;;;6.5;;
51515;SDS011;37603;55.614;37.326;2023-08-30T23:11:20;7.6;;;6.0;;
51515;SDS011;37603;55.614;37.326;2023-08-30T23:17:22;11.7;;;7.3;;
51515;SDS011;37603;55.614;37.326;2023-08-30T23:23:20;9.6;;;6.6;;
51515;SDS011;37603;55.614;37.326;2023-08-30T23:35:18;8.6;;;6.4;;
51515;SDS011;37603;55.614;37.326;2023-08-30T23:41:17;9.6;;;7.3;;
51515;SDS011;37603;55.614;37.326;2023-08-30T23:47:16;7.3;;;6.3;;
51515;SDS011;37603;55.614;37.326;2023-08-30T23:53:16;8.7;;;6.3;;
51515;SDS011;37603;55.614;37.326;2023-08-30T23:59:15;6.4;;;5.7;;
